LFPM 262000Z AUTO 17009KT 9999 ////// 07/06 Q1016

Les avions qui composent notre flotte

Avion Robin DR400-100

Avion école

(freins aux palonniers)

F-GGJG
   * tarif promotionnel appliqué pendant la formation des élèves non brevetés


F-GGJG Planche